createdAt,value
2023-07-20T00:01:31.457Z,100238.00
2023-07-20T00:04:01.140Z,100238.28
2023-07-20T00:06:31.222Z,100232.41
2023-07-20T00:09:00.794Z,100230.25
2023-07-20T00:11:31.062Z,100235.91
2023-07-20T00:14:00.678Z,100233.53
2023-07-20T00:16:32.840Z,100232.19
2023-07-20T00:19:02.428Z,100227.91
2023-07-20T00:21:32.040Z,100232.22
2023-07-20T00:24:01.689Z,100237.63
2023-07-20T00:26:31.354Z,100235.78
2023-07-20T00:29:01.094Z,100231.19
2023-07-20T00:31:33.302Z,100237.91
2023-07-20T00:34:02.899Z,100240.09
2023-07-20T00:36:32.456Z,100239.56
2023-07-20T00:39:02.124Z,100242.53
2023-07-20T00:41:33.087Z,100238.22
2023-07-20T00:44:02.429Z,100238.22
2023-07-20T00:46:34.683Z,100241.69
2023-07-20T00:49:04.530Z,100240.34
2023-07-20T00:51:34.092Z,100243.34
2023-07-20T00:54:04.056Z,100243.03
2023-07-20T00:56:33.791Z,100242.00
2023-07-20T00:59:03.373Z,100240.34
2023-07-20T01:01:35.607Z,100252.97
2023-07-20T01:04:05.847Z,100245.69
2023-07-20T01:06:40.252Z,100248.38
2023-07-20T01:09:14.896Z,100252.72
2023-07-20T01:11:47.645Z,100251.91
2023-07-20T01:14:17.302Z,100252.97
2023-07-20T01:16:51.081Z,100257.28
2023-07-20T01:19:20.794Z,100258.59
2023-07-20T01:21:55.444Z,100249.47
2023-07-20T01:24:43.766Z,100253.78
2023-07-20T01:27:46.107Z,100252.69
2023-07-20T01:30:28.921Z,100249.44
2023-07-20T01:33:01.274Z,100245.16
2023-07-20T01:35:32.437Z,100244.88
2023-07-20T01:38:02.018Z,100245.16
2023-07-20T01:40:31.597Z,100243.25
2023-07-20T01:43:01.170Z,100245.44
2023-07-20T01:45:30.927Z,100240.81
2023-07-20T01:48:03.122Z,100252.13
2023-07-20T01:50:32.711Z,100245.66
2023-07-20T01:53:02.270Z,100238.13
2023-07-20T01:55:31.818Z,100233.78
2023-07-20T01:58:02.989Z,100238.41
2023-07-20T02:00:32.624Z,100227.91
2023-07-20T02:03:04.836Z,100234.06
2023-07-20T02:05:34.493Z,100234.88
2023-07-20T02:08:04.056Z,100235.16
2023-07-20T02:10:33.625Z,100237.81
2023-07-20T02:13:03.342Z,100232.44
2023-07-20T02:15:32.905Z,100233.53
2023-07-20T02:18:05.106Z,100233.28
2023-07-20T02:20:34.721Z,100236.38
2023-07-20T02:23:04.423Z,100238.28
2023-07-20T02:25:34.071Z,100240.16
2023-07-20T02:28:03.696Z,100243.97
2023-07-20T02:30:33.292Z,100249.09
2023-07-20T02:33:06.681Z,100238.19
2023-07-20T02:35:36.323Z,100242.69
2023-07-20T02:38:05.883Z,100237.63
2023-07-20T02:40:35.454Z,100233.81
2023-07-20T02:43:05.012Z,100242.38
2023-07-20T02:45:34.574Z,100246.66
2023-07-20T02:48:09.271Z,100242.00
2023-07-20T02:50:39.004Z,100237.91
2023-07-20T02:53:08.906Z,100231.16
2023-07-20T02:55:38.502Z,100230.75
2023-07-20T02:58:08.092Z,100239.09
2023-07-20T03:00:37.669Z,100241.25
2023-07-20T03:03:11.171Z,100243.41
2023-07-20T03:05:41.855Z,100251.41
2023-07-20T03:08:11.460Z,100255.47
2023-07-20T03:10:44.401Z,100259.78
2023-07-20T03:13:14.070Z,100254.41
2023-07-20T03:15:44.068Z,100257.97
2023-07-20T03:18:16.233Z,100250.47
2023-07-20T03:20:46.199Z,100251.22
2023-07-20T03:23:16.298Z,100253.78
2023-07-20T03:25:45.865Z,100258.66
2023-07-20T03:28:15.421Z,100254.06
2023-07-20T03:30:45.012Z,100261.03
2023-07-20T03:33:17.197Z,100258.41
2023-07-20T03:35:46.868Z,100262.69
2023-07-20T03:38:16.424Z,100263.78
2023-07-20T03:40:53.276Z,100266.22
2023-07-20T03:43:22.888Z,100264.84
2023-07-20T03:45:52.755Z,100269.13
2023-07-20T03:48:26.207Z,100272.88
2023-07-20T03:50:56.531Z,100266.78
2023-07-20T03:53:26.091Z,100270.78
2023-07-20T03:55:56.272Z,100280.59
2023-07-20T03:58:25.840Z,100284.56
2023-07-20T04:00:55.829Z,100279.09
2023-07-20T04:03:28.827Z,100287.97
2023-07-20T04:05:58.988Z,100277.72
2023-07-20T04:08:28.565Z,100280.22
2023-07-20T04:10:58.407Z,100281.00
2023-07-20T04:13:27.999Z,100281.84
2023-07-20T04:15:57.571Z,100285.34
2023-07-20T04:18:29.737Z,100284.81
2023-07-20T04:20:59.348Z,100292.38
2023-07-20T04:23:28.982Z,100285.59
2023-07-20T04:25:58.548Z,100286.47
2023-07-20T04:28:28.160Z,100284.38
2023-07-20T04:30:57.792Z,100287.59
2023-07-20T04:33:30.352Z,100280.47
2023-07-20T04:35:59.942Z,100288.00
2023-07-20T04:38:29.546Z,100289.94
2023-07-20T04:40:59.143Z,100290.28
2023-07-20T04:43:28.747Z,100291.44
2023-07-20T04:45:58.369Z,100291.66
2023-07-20T04:48:30.604Z,100295.94
2023-07-20T04:51:00.177Z,100294.00
2023-07-20T04:53:29.750Z,100295.34
2023-07-20T04:55:59.349Z,100292.25
2023-07-20T04:58:28.939Z,100287.56
2023-07-20T05:00:58.508Z,100297.91
2023-07-20T05:03:30.906Z,100292.31
2023-07-20T05:06:01.003Z,100294.53
2023-07-20T05:08:30.625Z,100289.50
2023-07-20T05:11:00.225Z,100281.66
2023-07-20T05:13:29.792Z,100291.34
2023-07-20T05:15:59.404Z,100292.38
2023-07-20T05:18:32.026Z,100295.88
2023-07-20T05:21:01.575Z,100291.47
2023-07-20T05:23:31.164Z,100288.78
2023-07-20T05:26:00.800Z,100292.28
2023-07-20T05:28:30.410Z,100297.00
2023-07-20T05:31:00.972Z,100296.13
2023-07-20T05:33:33.166Z,100299.16
2023-07-20T05:36:02.747Z,100297.56
2023-07-20T05:38:32.331Z,100301.13
2023-07-20T05:41:03.798Z,100300.63
2023-07-20T05:43:33.414Z,100294.16
2023-07-20T05:46:03.069Z,100297.66
2023-07-20T05:48:36.692Z,100289.59
2023-07-20T05:51:06.769Z,100302.47
2023-07-20T05:53:36.385Z,100298.44
2023-07-20T05:56:06.398Z,100299.72
2023-07-20T05:58:35.991Z,100298.34
2023-07-20T06:01:06.983Z,100297.97
2023-07-20T06:03:39.284Z,100301.66
2023-07-20T06:06:10.574Z,100302.22
2023-07-20T06:08:40.249Z,100304.41
2023-07-20T06:11:09.827Z,100303.31
2023-07-20T06:13:39.426Z,100309.16
2023-07-20T06:16:09.102Z,100314.75
2023-07-20T06:18:41.319Z,100312.91
2023-07-20T06:21:10.929Z,100318.84
2023-07-20T06:23:40.501Z,100319.50
2023-07-20T06:26:10.094Z,100324.72
2023-07-20T06:28:39.746Z,100319.31
2023-07-20T06:31:09.359Z,100327.34
2023-07-20T06:33:41.614Z,100321.19
2023-07-20T06:36:11.230Z,100325.34
2023-07-20T06:38:41.625Z,100310.75
2023-07-20T06:46:16.708Z,100321.25
2023-07-20T06:51:22.251Z,100323.91
2023-07-20T06:53:52.000Z,100316.47
2023-07-20T06:56:23.619Z,100318.03
2023-07-20T06:58:55.491Z,100320.75
2023-07-20T07:01:25.310Z,100318.78
2023-07-20T07:03:57.948Z,100323.34
2023-07-20T07:06:29.301Z,100332.22
2023-07-20T07:08:59.482Z,100332.41
2023-07-20T07:11:29.170Z,100332.84
2023-07-20T07:13:58.781Z,100324.81
2023-07-20T07:16:28.633Z,100329.81
2023-07-20T07:19:02.670Z,100327.97
2023-07-20T07:21:32.337Z,100324.13
2023-07-20T07:24:01.936Z,100317.53
2023-07-20T07:26:31.500Z,100329.66
2023-07-20T07:29:01.075Z,100320.97
2023-07-20T07:31:30.935Z,100321.84
2023-07-20T07:34:03.570Z,100316.31
2023-07-20T07:36:33.163Z,100310.78
2023-07-20T07:39:33.476Z,100319.44
2023-07-20T07:41:52.571Z,100311.00
2023-07-20T07:44:22.700Z,100314.63
2023-07-20T07:46:53.180Z,100309.63
2023-07-20T07:49:25.422Z,100301.53
2023-07-20T07:51:55.020Z,100314.59
2023-07-20T07:54:24.591Z,100318.56
2023-07-20T07:56:55.236Z,100315.81
2023-07-20T07:59:24.836Z,100318.88
2023-07-20T08:01:54.745Z,100330.00
2023-07-20T08:04:26.898Z,100319.16
2023-07-20T08:06:56.548Z,100318.63
2023-07-20T08:09:26.166Z,100328.50
2023-07-20T08:11:55.784Z,100329.00
2023-07-20T08:14:26.015Z,100327.38
2023-07-20T08:16:55.664Z,100323.25
2023-07-20T08:19:28.012Z,100319.25
2023-07-20T08:21:57.624Z,100317.38
2023-07-20T08:24:27.243Z,100316.78
2023-07-20T08:26:56.872Z,100325.22
2023-07-20T08:29:26.494Z,100323.28
2023-07-20T08:31:56.096Z,100322.22
2023-07-20T08:34:31.803Z,100319.25
2023-07-20T08:37:02.333Z,100317.97
2023-07-20T08:39:31.935Z,100331.31
2023-07-20T08:42:05.544Z,100324.25
2023-07-20T08:44:35.741Z,100323.25
2023-07-20T08:47:05.953Z,100333.28
2023-07-20T08:49:38.420Z,100329.16
2023-07-20T08:52:08.324Z,100333.47
2023-07-20T08:54:38.188Z,100329.25
2023-07-20T08:57:08.961Z,100328.94
2023-07-20T08:59:38.330Z,100331.72
2023-07-20T09:02:08.512Z,100330.19
2023-07-20T09:04:40.752Z,100327.41
2023-07-20T09:07:10.348Z,100317.97
2023-07-20T09:09:43.864Z,100321.78
2023-07-20T09:12:17.681Z,100323.75
2023-07-20T09:14:47.585Z,100313.53
2023-07-20T09:17:18.604Z,100323.56
2023-07-20T09:19:53.882Z,100310.03
2023-07-20T09:22:23.471Z,100313.81
2023-07-20T09:24:53.202Z,100307.38
2023-07-20T09:27:22.871Z,100315.50
2023-07-20T09:29:53.149Z,100311.31
2023-07-20T09:32:25.367Z,100321.09
2023-07-20T09:38:23.128Z,100306.19
2023-07-20T09:50:59.422Z,100312.34
2023-07-20T09:53:29.734Z,100316.72
2023-07-20T09:55:59.331Z,100314.78
2023-07-20T09:58:28.984Z,100304.94
2023-07-20T10:00:58.679Z,100309.28
2023-07-20T10:03:35.492Z,100299.53
2023-07-20T10:06:10.929Z,100298.13
2023-07-20T10:11:15.951Z,100302.91
2023-07-20T10:13:46.079Z,100292.19
2023-07-20T10:16:18.704Z,100292.84
2023-07-20T10:18:52.493Z,100289.31
2023-07-20T10:23:58.850Z,100288.78
2023-07-20T10:26:28.761Z,100277.50
2023-07-20T10:28:58.314Z,100279.94
2023-07-20T10:31:30.261Z,100283.63
2023-07-20T10:34:00.666Z,100278.09
2023-07-20T10:36:32.866Z,100271.03
2023-07-20T10:39:02.588Z,100269.25
2023-07-20T10:41:32.864Z,100267.69
2023-07-20T10:44:05.452Z,100254.81
2023-07-20T10:46:39.062Z,100269.47
2023-07-20T10:49:09.029Z,100264.19
2023-07-20T10:51:45.587Z,100258.81
2023-07-20T10:54:39.545Z,100250.59
2023-07-20T10:57:28.419Z,100242.28
2023-07-20T11:00:00.650Z,100239.63
2023-07-20T11:02:30.274Z,100251.03
2023-07-20T11:05:02.483Z,100252.69
2023-07-20T11:07:42.901Z,100254.28
2023-07-20T11:10:20.119Z,100246.59
2023-07-20T11:13:20.482Z,100242.09
2023-07-20T11:15:50.929Z,100248.81
2023-07-20T11:18:20.651Z,100248.72
2023-07-20T11:20:54.271Z,100247.06
2023-07-20T11:23:26.476Z,100241.56
2023-07-20T11:25:56.094Z,100249.06
2023-07-20T11:28:25.983Z,100240.16
2023-07-20T11:30:56.413Z,100234.41
2023-07-20T11:33:26.092Z,100230.41
2023-07-20T11:35:55.663Z,100235.38
2023-07-20T11:38:27.862Z,100227.34
2023-07-20T11:40:57.448Z,100228.78
2023-07-20T11:43:27.362Z,100236.50
2023-07-20T11:45:56.949Z,100235.72
2023-07-20T11:48:26.535Z,100228.19
2023-07-20T11:50:56.319Z,100223.47
2023-07-20T11:53:28.568Z,100214.50
2023-07-20T11:55:58.301Z,100208.59
2023-07-20T11:58:28.053Z,100209.38
2023-07-20T12:00:57.661Z,100209.88
2023-07-20T12:03:27.272Z,100202.91
2023-07-20T12:06:01.788Z,100192.06
2023-07-20T12:08:34.523Z,100190.59
2023-07-20T12:11:04.160Z,100195.84
2023-07-20T12:13:40.838Z,100200.25
2023-07-20T12:16:15.776Z,100184.19
2023-07-20T12:18:45.712Z,100179.53
2023-07-20T12:21:15.287Z,100176.84
2023-07-20T12:23:47.507Z,100172.38
2023-07-20T12:26:18.087Z,100176.72
2023-07-20T12:28:47.696Z,100180.16
2023-07-20T12:31:17.299Z,100177.34
2023-07-20T12:33:46.986Z,100157.16
2023-07-20T12:36:16.554Z,100168.63
2023-07-20T12:38:48.715Z,100160.63
2023-07-20T12:41:18.791Z,100162.09
2023-07-20T12:43:48.693Z,100156.34
2023-07-20T12:46:18.356Z,100150.56
2023-07-20T12:48:50.044Z,100154.41
2023-07-20T12:51:19.957Z,100153.44
2023-07-20T12:53:52.138Z,100151.34
2023-07-20T12:58:54.219Z,100143.19
2023-07-20T13:01:25.570Z,100142.03
2023-07-20T13:06:28.831Z,100142.97
2023-07-20T13:09:03.904Z,100133.13
2023-07-20T13:11:33.477Z,100135.22
2023-07-20T13:14:03.084Z,100135.16
2023-07-20T13:16:32.670Z,100129.09
2023-07-20T13:19:02.268Z,100123.53
2023-07-20T13:21:31.857Z,100123.94
2023-07-20T13:24:05.483Z,100122.69
2023-07-20T13:26:36.753Z,100122.72
2023-07-20T13:29:06.644Z,100128.53
2023-07-20T13:31:36.600Z,100137.03
2023-07-20T13:34:08.446Z,100128.97
2023-07-20T13:36:38.504Z,100139.13
2023-07-20T13:39:10.662Z,100135.25
2023-07-20T13:41:40.347Z,100129.03
2023-07-20T13:44:09.926Z,100122.31
2023-07-20T13:49:22.849Z,100127.56
2023-07-20T13:54:28.113Z,100125.16
2023-07-20T13:56:57.732Z,100117.75
2023-07-20T13:59:27.361Z,100115.22
2023-07-20T14:04:30.372Z,100111.41
2023-07-20T14:07:00.175Z,100114.78
2023-07-20T14:09:32.423Z,100111.44
2023-07-20T14:14:34.486Z,100115.88
2023-07-20T14:17:04.092Z,100115.56
2023-07-20T14:19:33.730Z,100115.88
2023-07-20T14:22:04.851Z,100107.25
2023-07-20T14:24:37.026Z,100106.94
2023-07-20T14:27:07.148Z,100114.75
2023-07-20T14:29:37.653Z,100114.59
2023-07-20T14:32:08.795Z,100110.28
2023-07-20T14:34:39.962Z,100107.41
2023-07-20T14:37:09.882Z,100104.38
2023-07-20T14:39:42.033Z,100093.81
2023-07-20T14:42:11.854Z,100097.22
2023-07-20T14:44:41.669Z,100088.53
2023-07-20T14:47:15.127Z,100092.06
2023-07-20T14:49:45.480Z,100090.78
2023-07-20T14:52:17.012Z,100088.03
2023-07-20T14:54:49.650Z,100085.63
2023-07-20T14:57:19.206Z,100084.06
2023-07-20T14:59:48.783Z,100084.88
2023-07-20T15:02:18.344Z,100083.09
2023-07-20T15:04:52.083Z,100086.78
2023-07-20T15:07:22.753Z,100083.59
2023-07-20T15:09:54.981Z,100083.41
2023-07-20T15:12:24.572Z,100083.72
2023-07-20T15:15:06.422Z,100089.00
2023-07-20T15:17:36.145Z,100081.19
2023-07-20T15:20:06.243Z,100081.81
2023-07-20T15:22:36.866Z,100082.78
2023-07-20T15:25:09.867Z,100073.97
2023-07-20T15:27:48.077Z,100078.94
2023-07-20T15:35:25.515Z,100076.53
2023-07-20T15:37:55.178Z,100068.84
2023-07-20T15:40:27.417Z,100069.66
2023-07-20T15:42:56.992Z,100066.78
2023-07-20T15:45:26.594Z,100067.13
2023-07-20T15:47:56.226Z,100063.28
2023-07-20T15:50:26.018Z,100067.56
2023-07-20T15:52:58.343Z,100053.19
2023-07-20T15:55:30.855Z,100048.72
2023-07-20T15:58:00.403Z,100045.03
2023-07-20T16:00:30.153Z,100040.19
2023-07-20T16:02:59.992Z,100041.00
2023-07-20T16:05:32.522Z,100047.56
2023-07-20T16:08:02.432Z,100045.09
2023-07-20T16:13:04.678Z,100037.28
2023-07-20T16:18:07.537Z,100037.03
2023-07-20T16:20:37.166Z,100035.09
2023-07-20T16:23:07.638Z,100025.34
2023-07-20T16:25:39.785Z,100023.56
2023-07-20T16:28:10.985Z,100025.75
2023-07-20T16:30:40.897Z,100027.09
2023-07-20T16:33:10.537Z,100020.06
2023-07-20T16:38:14.189Z,100021.50
2023-07-20T16:44:05.830Z,100014.44
2023-07-20T16:51:14.418Z,100017.50
2023-07-20T16:53:44.426Z,100021.66
2023-07-20T16:56:16.597Z,100018.78
2023-07-20T16:58:46.145Z,100016.69
2023-07-20T17:01:16.203Z,100019.41
2023-07-20T17:03:45.888Z,100018.94
2023-07-20T17:06:15.776Z,100019.75
2023-07-20T17:08:45.331Z,100010.78
2023-07-20T17:11:17.588Z,100009.19
2023-07-20T17:13:47.168Z,100010.94
2023-07-20T17:16:17.689Z,100007.59
2023-07-20T17:18:47.290Z,100007.59
2023-07-20T17:21:17.176Z,100009.19
2023-07-20T17:28:55.021Z,100005.50
2023-07-20T17:31:29.213Z,100011.56
2023-07-20T17:34:00.718Z,100012.00
2023-07-20T17:39:03.173Z,100005.03
2023-07-20T17:41:35.360Z,100004.75
2023-07-20T17:44:04.967Z,100000.81
2023-07-20T17:49:07.561Z,100003.06
2023-07-20T17:51:37.150Z,100008.06
2023-07-20T17:54:06.936Z,100000.31
2023-07-20T17:56:39.129Z,100006.53
2023-07-20T17:59:08.683Z,100011.41
2023-07-20T18:01:38.306Z,100010.47
2023-07-20T18:04:09.344Z,100011.53
2023-07-20T18:06:39.194Z,100009.06
2023-07-20T18:09:10.700Z,100004.81
2023-07-20T18:11:42.855Z,100005.13
2023-07-20T18:14:12.439Z,100002.59
2023-07-20T18:16:42.082Z,100003.22
2023-07-20T18:19:11.688Z,100004.81
2023-07-20T18:21:41.280Z,100004.22
2023-07-20T18:24:10.917Z,99998.19
2023-07-20T18:26:43.082Z,100006.31
2023-07-20T18:29:12.658Z,100002.63
2023-07-20T18:31:42.431Z,100014.16
2023-07-20T18:34:12.042Z,100014.25
2023-07-20T18:36:41.602Z,100015.06
2023-07-20T18:39:11.262Z,100006.34
2023-07-20T18:41:43.653Z,100014.75
2023-07-20T18:44:13.353Z,100018.78
2023-07-20T18:46:43.756Z,100010.66
2023-07-20T18:49:13.321Z,100019.25
2023-07-20T18:51:42.911Z,100017.66
2023-07-20T18:54:12.637Z,100017.38
2023-07-20T18:56:45.059Z,100017.19
2023-07-20T18:59:14.625Z,100010.66
2023-07-20T19:01:44.267Z,100015.78
2023-07-20T19:04:13.843Z,100023.88
2023-07-20T19:06:43.644Z,100021.47
2023-07-20T19:09:13.387Z,100018.25
2023-07-20T19:14:18.018Z,100020.47
2023-07-20T19:16:47.641Z,100018.53
2023-07-20T19:19:21.319Z,100019.25
2023-07-20T19:21:51.023Z,100025.97
2023-07-20T19:24:20.795Z,100023.47
2023-07-20T19:26:52.962Z,100025.97
2023-07-20T19:29:22.528Z,100019.84
2023-07-20T19:31:52.105Z,100025.53
2023-07-20T19:34:21.665Z,100022.13
2023-07-20T19:36:51.549Z,100029.53
2023-07-20T19:39:21.189Z,100024.75
2023-07-20T19:41:53.364Z,100027.53
2023-07-20T19:44:23.742Z,100038.19
2023-07-20T19:46:53.513Z,100039.50
2023-07-20T19:49:23.122Z,100035.13
2023-07-20T19:51:52.848Z,100037.88
2023-07-20T19:56:57.518Z,100033.41
2023-07-20T19:59:27.186Z,100027.97
2023-07-20T20:01:56.797Z,100030.63
2023-07-20T20:06:58.941Z,100029.09
2023-07-20T20:09:28.766Z,100033.19
2023-07-20T20:12:00.892Z,100032.28
2023-07-20T20:14:30.493Z,100025.13
2023-07-20T20:17:00.129Z,100030.53
2023-07-20T20:19:29.734Z,100029.97
2023-07-20T20:22:02.065Z,100027.38
2023-07-20T20:24:32.148Z,100020.50
2023-07-20T20:27:05.645Z,100021.59
2023-07-20T20:29:36.603Z,100029.50
2023-07-20T20:32:06.676Z,100034.03
2023-07-20T20:34:36.256Z,100028.03
2023-07-20T20:37:05.814Z,100044.75
2023-07-20T20:39:35.383Z,100038.44
2023-07-20T20:42:08.401Z,100033.78
2023-07-20T20:44:38.224Z,100031.25
2023-07-20T20:47:08.863Z,100040.53
2023-07-20T20:49:46.086Z,100032.38
2023-07-20T20:54:45.606Z,100030.88
2023-07-20T20:57:18.744Z,100031.84
2023-07-20T20:59:48.970Z,100026.72
2023-07-20T21:02:19.852Z,100028.59
2023-07-20T21:04:50.952Z,100031.78
2023-07-20T21:07:20.450Z,100028.47
2023-07-20T21:09:50.188Z,100024.38
2023-07-20T21:12:22.535Z,100020.91
2023-07-20T21:14:52.114Z,100023.59
2023-07-20T21:17:21.724Z,100023.28
2023-07-20T21:19:51.486Z,100026.50
2023-07-20T21:22:21.043Z,100021.91
2023-07-20T21:24:50.719Z,100021.63
2023-07-20T21:27:22.966Z,100024.09
2023-07-20T21:29:52.702Z,100027.91
2023-07-20T21:32:22.848Z,100022.56
2023-07-20T21:34:52.469Z,100018.06
2023-07-20T21:37:22.134Z,100021.81
2023-07-20T21:39:51.711Z,100022.19
2023-07-20T21:42:23.968Z,100019.66
2023-07-20T21:44:53.786Z,100023.28
2023-07-20T21:47:23.403Z,100026.28
2023-07-20T21:52:22.315Z,100018.31
2023-07-20T21:54:53.507Z,100011.53
2023-07-20T21:57:26.083Z,100010.66
2023-07-20T21:59:55.640Z,100017.16
2023-07-20T22:02:25.481Z,100013.91
2023-07-20T22:04:55.487Z,100014.25
2023-07-20T22:07:25.214Z,100015.03
2023-07-20T22:09:54.777Z,100022.84
2023-07-20T22:12:27.218Z,100016.69
2023-07-20T22:14:56.974Z,100009.25
2023-07-20T22:17:26.577Z,100012.78
2023-07-20T22:19:56.313Z,100019.53
2023-07-20T22:22:25.903Z,100010.38
2023-07-20T22:24:56.052Z,100010.22
2023-07-20T22:27:28.502Z,100014.50
2023-07-20T22:29:58.073Z,100013.63
2023-07-20T22:32:27.694Z,100017.72
2023-07-20T22:34:57.378Z,100022.56
2023-07-20T22:37:26.974Z,100022.88
2023-07-20T22:39:56.582Z,100020.25
2023-07-20T22:42:28.746Z,100014.97
2023-07-20T22:44:58.415Z,100012.09
2023-07-20T22:47:28.090Z,100016.69
2023-07-20T22:49:58.832Z,100009.13
2023-07-20T22:52:28.420Z,100008.84
2023-07-20T22:54:58.126Z,100007.16
2023-07-20T22:57:30.261Z,99999.66
2023-07-20T23:00:01.613Z,100001.59
2023-07-20T23:02:31.869Z,99997.88
2023-07-20T23:05:01.725Z,99995.41
2023-07-20T23:07:32.403Z,99994.88
2023-07-20T23:10:02.895Z,99995.97
2023-07-20T23:12:35.109Z,99991.91
2023-07-20T23:15:05.195Z,99983.81
2023-07-20T23:17:34.777Z,99984.69
2023-07-20T23:20:04.810Z,99979.56
2023-07-20T23:22:34.652Z,99982.25
2023-07-20T23:25:04.426Z,99987.88
2023-07-20T23:27:36.633Z,99984.91
2023-07-20T23:30:06.395Z,99981.94
2023-07-20T23:32:36.028Z,99985.13
2023-07-20T23:35:05.676Z,99977.53
2023-07-20T23:37:35.274Z,99988.91
2023-07-20T23:40:09.910Z,99980.56
2023-07-20T23:42:43.272Z,99980.25
2023-07-20T23:45:15.276Z,99979.72
2023-07-20T23:47:45.051Z,99977.03
2023-07-20T23:50:17.933Z,99974.94
2023-07-20T23:52:47.555Z,99978.69
2023-07-20T23:55:17.406Z,99982.22
2023-07-20T23:57:49.805Z,99983.25
